TRA957 EHAM-LOWI
Flight info
| Callsign | TRA957 |
|---|---|
| Flight time | 1h 25m |
| Altitude | 35000 |
| Route | EDUPO Z739 MISGO DCT DOJOH DCT DODEN DCT TABUM DCT HAREM T104 WLD M867 BAVAX Z106 MANAL M736 TULSI TULSI3A |
| Aircraft | B738/M-SDE2E3FGHIRWXY/LB1 |
Departure
| Time | 2026-05-06 09:09 |
|---|---|
| Airport | Amsterdam Airport Schiphol (EHAM) |
Arrival
| Time | 2026-05-06 10:34 |
|---|---|
| Airport | Innsbruck Airport (LOWI) |
| Time | Latitude | Longitude | Altitude | Speed | Heading |
|---|---|---|---|---|---|
| 2026-05-06 08:40 | 52.30504 | 4.76547 | -2 ft | 0 kts | 58° |
| 2026-05-06 08:51 | 52.30499 | 4.76529 | -2 ft | 3 kts | 74° |
| 2026-05-06 08:51 | 52.30497 | 4.76498 | -2 ft | 3 kts | 106° |
| 2026-05-06 08:51 | 52.30506 | 4.76470 | -2 ft | 3 kts | 138° |
| 2026-05-06 08:52 | 52.30521 | 4.76452 | -2 ft | 1 kts | 145° |
| 2026-05-06 08:52 | 52.30522 | 4.76452 | -2 ft | 0 kts | 145° |
| 2026-05-06 08:58 | 52.30521 | 4.76453 | -2 ft | 1 kts | 146° |
| 2026-05-06 08:58 | 52.30494 | 4.76472 | -2 ft | 6 kts | 161° |
| 2026-05-06 08:58 | 52.30454 | 4.76496 | -2 ft | 6 kts | 157° |
| 2026-05-06 08:59 | 52.30417 | 4.76527 | -2 ft | 6 kts | 149° |
| 2026-05-06 08:59 | 52.30383 | 4.76567 | -2 ft | 6 kts | 142° |
| 2026-05-06 08:59 | 52.30346 | 4.76589 | -2 ft | 6 kts | 181° |
| 2026-05-06 08:59 | 52.30312 | 4.76556 | -2 ft | 6 kts | 226° |
| 2026-05-06 09:00 | 52.30284 | 4.76495 | -2 ft | 8 kts | 237° |
| 2026-05-06 09:00 | 52.30248 | 4.76401 | -2 ft | 12 kts | 238° |
| 2026-05-06 09:00 | 52.30236 | 4.76370 | -2 ft | 13 kts | 238° |
| 2026-05-06 09:00 | 52.30235 | 4.76365 | -2 ft | 13 kts | 238° |
| 2026-05-06 09:01 | 52.30182 | 4.76224 | -2 ft | 16 kts | 238° |
| 2026-05-06 09:01 | 52.30117 | 4.76053 | -2 ft | 19 kts | 237° |
| 2026-05-06 09:01 | 52.30036 | 4.75856 | -2 ft | 22 kts | 237° |
| 2026-05-06 09:01 | 52.29960 | 4.75647 | -2 ft | 19 kts | 238° |
| 2026-05-06 09:02 | 52.29893 | 4.75471 | -2 ft | 18 kts | 238° |
| 2026-05-06 09:02 | 52.29850 | 4.75354 | -2 ft | 10 kts | 239° |
| 2026-05-06 09:02 | 52.29834 | 4.75245 | -2 ft | 11 kts | 276° |
| 2026-05-06 09:02 | 52.29874 | 4.75135 | -2 ft | 12 kts | 310° |
| 2026-05-06 09:03 | 52.29916 | 4.75057 | -2 ft | 13 kts | 312° |
| 2026-05-06 09:03 | 52.29931 | 4.75031 | -2 ft | 14 kts | 311° |
| 2026-05-06 09:03 | 52.29995 | 4.74909 | -2 ft | 14 kts | 311° |
| 2026-05-06 09:03 | 52.30063 | 4.74788 | -1 ft | 14 kts | 313° |
| 2026-05-06 09:04 | 52.30126 | 4.74666 | 7 ft | 14 kts | 310° |
| 2026-05-06 09:04 | 52.30188 | 4.74550 | 9 ft | 13 kts | 311° |
| 2026-05-06 09:04 | 52.30248 | 4.74440 | 9 ft | 13 kts | 313° |
| 2026-05-06 09:04 | 52.30307 | 4.74329 | 3 ft | 15 kts | 309° |
| 2026-05-06 09:05 | 52.30365 | 4.74205 | -2 ft | 12 kts | 292° |
| 2026-05-06 09:05 | 52.30347 | 4.74080 | -2 ft | 12 kts | 233° |
| 2026-05-06 09:05 | 52.30286 | 4.73996 | -2 ft | 11 kts | 213° |
| 2026-05-06 09:05 | 52.30223 | 4.73921 | -2 ft | 11 kts | 218° |
| 2026-05-06 09:06 | 52.30191 | 4.73814 | -3 ft | 11 kts | 274° |
| 2026-05-06 09:06 | 52.30241 | 4.73743 | -4 ft | 8 kts | 353° |
| 2026-05-06 09:06 | 52.30260 | 4.73744 | -5 ft | 0 kts | 5° |
| 2026-05-06 09:06 | 52.30266 | 4.73744 | -5 ft | 1 kts | 5° |
| 2026-05-06 09:07 | 52.30276 | 4.73746 | -5 ft | 0 kts | 5° |
| 2026-05-06 09:07 | 52.30280 | 4.73746 | -5 ft | 0 kts | 4° |
| 2026-05-06 09:08 | 52.30302 | 4.73749 | -5 ft | 20 kts | 4° |
| 2026-05-06 09:08 | 52.30682 | 4.73785 | -3 ft | 85 kts | 3° |
| 2026-05-06 09:08 | 52.31447 | 4.73860 | -3 ft | 132 kts | 7° |
| 2026-05-06 09:08 | 52.32454 | 4.74058 | 485 ft | 150 kts | 9° |
| 2026-05-06 09:09 | 52.33494 | 4.74176 | 1445 ft | 147 kts | 5° |
| 2026-05-06 09:09 | 52.34487 | 4.74306 | 2408 ft | 143 kts | 14° |
| 2026-05-06 09:09 | 52.35466 | 4.74933 | 2901 ft | 167 kts | 33° |
| 2026-05-06 09:09 | 52.36502 | 4.75931 | 3633 ft | 177 kts | 28° |
| 2026-05-06 09:10 | 52.37610 | 4.76823 | 4512 ft | 179 kts | 27° |
| 2026-05-06 09:10 | 52.38699 | 4.77990 | 5032 ft | 196 kts | 44° |
| 2026-05-06 09:10 | 52.39615 | 4.79752 | 5492 ft | 213 kts | 49° |
| 2026-05-06 09:10 | 52.40650 | 4.81645 | 5779 ft | 242 kts | 45° |
| 2026-05-06 09:11 | 52.41817 | 4.83811 | 6280 ft | 261 kts | 57° |
| 2026-05-06 09:11 | 52.42386 | 4.86680 | 7116 ft | 270 kts | 82° |
| 2026-05-06 09:11 | 52.42462 | 4.89769 | 8036 ft | 273 kts | 87° |
| 2026-05-06 09:11 | 52.42452 | 4.92926 | 8832 ft | 281 kts | 88° |
| 2026-05-06 09:12 | 52.42449 | 4.93531 | 8996 ft | 283 kts | 88° |
| 2026-05-06 09:12 | 52.42442 | 4.94983 | 9393 ft | 285 kts | 89° |
| 2026-05-06 09:12 | 52.42062 | 4.98172 | 10240 ft | 298 kts | 113° |
| 2026-05-06 09:12 | 52.40766 | 5.00970 | 10530 ft | 326 kts | 140° |
| 2026-05-06 09:13 | 52.38857 | 5.03173 | 10980 ft | 342 kts | 146° |
| 2026-05-06 09:13 | 52.36870 | 5.05368 | 11797 ft | 345 kts | 145° |
| 2026-05-06 09:13 | 52.34879 | 5.07615 | 12603 ft | 350 kts | 145° |
| 2026-05-06 09:13 | 52.32914 | 5.10018 | 13418 ft | 354 kts | 137° |
| 2026-05-06 09:14 | 52.31240 | 5.12895 | 14275 ft | 354 kts | 131° |
| 2026-05-06 09:14 | 52.29636 | 5.15993 | 15033 ft | 357 kts | 130° |
| 2026-05-06 09:14 | 52.28014 | 5.19097 | 15809 ft | 359 kts | 131° |
| 2026-05-06 09:14 | 52.26359 | 5.22163 | 16583 ft | 361 kts | 132° |
| 2026-05-06 09:15 | 52.24694 | 5.25195 | 17340 ft | 363 kts | 132° |
| 2026-05-06 09:15 | 52.23096 | 5.28409 | 18100 ft | 366 kts | 127° |
| 2026-05-06 09:15 | 52.21612 | 5.31807 | 18780 ft | 368 kts | 126° |
| 2026-05-06 09:15 | 52.20150 | 5.35278 | 19413 ft | 371 kts | 125° |
| 2026-05-06 09:16 | 52.18677 | 5.38770 | 19982 ft | 376 kts | 126° |
| 2026-05-06 09:16 | 52.17195 | 5.42248 | 20570 ft | 379 kts | 126° |
| 2026-05-06 09:16 | 52.15670 | 5.45786 | 21152 ft | 383 kts | 126° |
| 2026-05-06 09:16 | 52.14120 | 5.49355 | 21760 ft | 386 kts | 126° |
| 2026-05-06 09:17 | 52.12554 | 5.52944 | 22379 ft | 389 kts | 127° |
| 2026-05-06 09:17 | 52.10984 | 5.56533 | 23051 ft | 390 kts | 127° |
| 2026-05-06 09:17 | 52.09396 | 5.60158 | 23523 ft | 396 kts | 127° |
| 2026-05-06 09:17 | 52.07808 | 5.63778 | 24014 ft | 398 kts | 126° |
| 2026-05-06 09:18 | 52.06188 | 5.67454 | 24486 ft | 401 kts | 127° |
| 2026-05-06 09:18 | 52.04444 | 5.70990 | 25055 ft | 400 kts | 131° |
| 2026-05-06 09:18 | 52.02615 | 5.74350 | 25498 ft | 402 kts | 133° |
| 2026-05-06 09:18 | 52.00749 | 5.77744 | 25967 ft | 404 kts | 132° |
| 2026-05-06 09:19 | 51.98888 | 5.81180 | 26423 ft | 406 kts | 132° |
| 2026-05-06 09:19 | 51.98638 | 5.81646 | 26487 ft | 406 kts | 132° |
| 2026-05-06 09:19 | 51.97559 | 5.83658 | 26719 ft | 408 kts | 131° |
| 2026-05-06 09:19 | 51.95691 | 5.87150 | 27127 ft | 411 kts | 131° |
| 2026-05-06 09:20 | 51.93808 | 5.90658 | 27581 ft | 412 kts | 131° |
| 2026-05-06 09:20 | 51.91938 | 5.94138 | 27922 ft | 416 kts | 131° |
| 2026-05-06 09:20 | 51.90037 | 5.97672 | 28457 ft | 414 kts | 131° |
| 2026-05-06 09:20 | 51.88136 | 6.01200 | 28856 ft | 417 kts | 131° |
| 2026-05-06 09:21 | 51.86217 | 6.04756 | 29164 ft | 420 kts | 131° |
| 2026-05-06 09:21 | 51.84278 | 6.08331 | 29624 ft | 422 kts | 131° |
| 2026-05-06 09:21 | 51.82342 | 6.11876 | 30052 ft | 423 kts | 131° |
| 2026-05-06 09:21 | 51.80382 | 6.15457 | 30510 ft | 422 kts | 131° |
| 2026-05-06 09:22 | 51.78460 | 6.18966 | 30906 ft | 421 kts | 131° |
| 2026-05-06 09:22 | 51.76516 | 6.22513 | 31248 ft | 422 kts | 132° |
| 2026-05-06 09:22 | 51.74560 | 6.26085 | 31645 ft | 421 kts | 132° |
| 2026-05-06 09:22 | 51.72620 | 6.29625 | 32052 ft | 421 kts | 132° |
| 2026-05-06 09:23 | 51.71497 | 6.31675 | 32258 ft | 421 kts | 132° |
| 2026-05-06 09:23 | 51.70033 | 6.34344 | 32515 ft | 422 kts | 133° |
| 2026-05-06 09:23 | 51.68110 | 6.37849 | 32870 ft | 422 kts | 133° |
| 2026-05-06 09:23 | 51.66159 | 6.41397 | 33219 ft | 423 kts | 133° |
| 2026-05-06 09:24 | 51.64207 | 6.44939 | 33623 ft | 422 kts | 133° |
| 2026-05-06 09:24 | 51.62252 | 6.48482 | 33974 ft | 423 kts | 133° |
| 2026-05-06 09:24 | 51.60279 | 6.52051 | 34054 ft | 429 kts | 133° |
| 2026-05-06 09:24 | 51.58289 | 6.55645 | 34283 ft | 431 kts | 133° |
| 2026-05-06 09:25 | 51.56324 | 6.59194 | 34636 ft | 429 kts | 133° |
| 2026-05-06 09:25 | 51.54336 | 6.62779 | 34811 ft | 432 kts | 134° |
| 2026-05-06 09:25 | 51.52319 | 6.66411 | 34812 ft | 435 kts | 134° |
| 2026-05-06 09:26 | 51.48301 | 6.73633 | 34796 ft | 430 kts | 134° |
| 2026-05-06 09:26 | 51.44349 | 6.80721 | 34802 ft | 424 kts | 134° |
| 2026-05-06 09:27 | 51.40430 | 6.87709 | 34810 ft | 422 kts | 135° |
| 2026-05-06 09:27 | 51.36284 | 6.94356 | 34805 ft | 421 kts | 139° |
| 2026-05-06 09:28 | 51.32026 | 7.00844 | 34800 ft | 423 kts | 139° |
| 2026-05-06 09:28 | 51.27759 | 7.07368 | 34802 ft | 425 kts | 139° |
| 2026-05-06 09:29 | 51.23508 | 7.13905 | 34793 ft | 428 kts | 138° |
| 2026-05-06 09:29 | 51.19213 | 7.20516 | 34784 ft | 429 kts | 139° |
| 2026-05-06 09:30 | 51.14945 | 7.27068 | 34786 ft | 430 kts | 139° |
| 2026-05-06 09:30 | 51.12090 | 7.31440 | 34783 ft | 431 kts | 139° |
| 2026-05-06 09:31 | 51.07756 | 7.38063 | 34780 ft | 431 kts | 139° |
| 2026-05-06 09:31 | 51.03445 | 7.44632 | 34789 ft | 431 kts | 139° |
| 2026-05-06 09:32 | 50.99109 | 7.51222 | 34770 ft | 431 kts | 139° |
| 2026-05-06 09:32 | 50.94774 | 7.57791 | 34752 ft | 429 kts | 139° |
| 2026-05-06 09:33 | 50.90458 | 7.64317 | 34763 ft | 427 kts | 139° |
| 2026-05-06 09:33 | 50.86186 | 7.70759 | 34767 ft | 425 kts | 139° |
| 2026-05-06 09:34 | 50.81890 | 7.77205 | 34770 ft | 423 kts | 140° |
| 2026-05-06 09:34 | 50.77623 | 7.83546 | 34770 ft | 422 kts | 140° |
| 2026-05-06 09:35 | 50.73337 | 7.89900 | 34776 ft | 422 kts | 140° |
| 2026-05-06 09:35 | 50.69046 | 7.96251 | 34760 ft | 423 kts | 140° |
| 2026-05-06 09:36 | 50.64770 | 8.02568 | 34773 ft | 424 kts | 140° |
| 2026-05-06 09:36 | 50.60437 | 8.08908 | 34760 ft | 424 kts | 143° |
| 2026-05-06 09:37 | 50.55605 | 8.14142 | 34756 ft | 422 kts | 151° |
| 2026-05-06 09:37 | 50.50621 | 8.19017 | 34756 ft | 423 kts | 151° |
| 2026-05-06 09:38 | 50.45628 | 8.23971 | 34758 ft | 424 kts | 151° |
| 2026-05-06 09:38 | 50.41486 | 8.28120 | 34753 ft | 425 kts | 151° |
| 2026-05-06 09:39 | 50.35686 | 8.33929 | 34745 ft | 425 kts | 151° |
| 2026-05-06 09:39 | 50.31535 | 8.38073 | 34754 ft | 424 kts | 152° |
| 2026-05-06 09:40 | 50.26851 | 8.43709 | 34779 ft | 428 kts | 140° |
| 2026-05-06 09:40 | 50.20502 | 8.53530 | 34757 ft | 428 kts | 140° |
| 2026-05-06 09:41 | 50.16285 | 8.60006 | 34761 ft | 427 kts | 140° |
| 2026-05-06 09:41 | 50.12034 | 8.66469 | 34780 ft | 427 kts | 140° |
| 2026-05-06 09:42 | 50.07748 | 8.72951 | 34772 ft | 426 kts | 140° |
| 2026-05-06 09:42 | 50.03519 | 8.79328 | 34771 ft | 426 kts | 141° |
| 2026-05-06 09:43 | 49.99267 | 8.85725 | 34771 ft | 425 kts | 141° |
| 2026-05-06 09:43 | 49.95014 | 8.92107 | 34773 ft | 424 kts | 141° |
| 2026-05-06 09:44 | 49.90764 | 8.98469 | 34773 ft | 424 kts | 141° |
| 2026-05-06 09:44 | 49.86512 | 9.04816 | 34770 ft | 424 kts | 141° |
| 2026-05-06 09:45 | 49.84544 | 9.07749 | 34777 ft | 424 kts | 141° |
| 2026-05-06 09:45 | 49.81234 | 9.12675 | 34770 ft | 422 kts | 141° |
| 2026-05-06 09:46 | 49.79087 | 9.15866 | 34765 ft | 421 kts | 141° |
| 2026-05-06 09:46 | 49.74892 | 9.22084 | 34773 ft | 419 kts | 141° |
| 2026-05-06 09:47 | 49.70675 | 9.28321 | 34779 ft | 418 kts | 141° |
| 2026-05-06 09:47 | 49.66467 | 9.34532 | 34778 ft | 417 kts | 141° |
| 2026-05-06 09:48 | 49.62295 | 9.40671 | 34773 ft | 416 kts | 141° |
| 2026-05-06 09:48 | 49.58361 | 9.47305 | 34764 ft | 419 kts | 136° |
| 2026-05-06 09:49 | 49.54551 | 9.54129 | 34779 ft | 420 kts | 137° |
| 2026-05-06 09:49 | 49.50728 | 9.60910 | 34797 ft | 423 kts | 137° |
| 2026-05-06 09:50 | 49.46838 | 9.67745 | 34799 ft | 426 kts | 137° |
| 2026-05-06 09:50 | 49.42907 | 9.74627 | 34801 ft | 429 kts | 137° |
| 2026-05-06 09:51 | 49.38985 | 9.81476 | 34805 ft | 431 kts | 137° |
| 2026-05-06 09:51 | 49.34986 | 9.88382 | 34796 ft | 431 kts | 139° |
| 2026-05-06 09:52 | 49.30968 | 9.95251 | 34797 ft | 433 kts | 139° |
| 2026-05-06 09:52 | 49.27961 | 10.00387 | 34804 ft | 433 kts | 139° |
| 2026-05-06 09:53 | 49.24771 | 10.05833 | 34797 ft | 433 kts | 139° |
| 2026-05-06 09:53 | 49.22434 | 10.09817 | 34797 ft | 433 kts | 139° |
| 2026-05-06 09:54 | 49.19461 | 10.14877 | 34806 ft | 432 kts | 139° |
| 2026-05-06 09:54 | 49.16396 | 10.20165 | 34806 ft | 432 kts | 139° |
| 2026-05-06 09:55 | 49.12681 | 10.26526 | 34803 ft | 430 kts | 140° |
| 2026-05-06 09:55 | 49.08587 | 10.33079 | 34820 ft | 429 kts | 141° |
| 2026-05-06 09:56 | 49.06513 | 10.36373 | 34562 ft | 429 kts | 141° |
| 2026-05-06 09:56 | 49.04469 | 10.39647 | 34240 ft | 423 kts | 141° |
| 2026-05-06 09:56 | 49.02453 | 10.42887 | 33860 ft | 419 kts | 141° |
| 2026-05-06 09:56 | 49.00458 | 10.46089 | 33437 ft | 415 kts | 142° |
| 2026-05-06 09:57 | 48.98467 | 10.49236 | 33059 ft | 409 kts | 142° |
| 2026-05-06 09:57 | 48.96512 | 10.52293 | 32669 ft | 404 kts | 142° |
| 2026-05-06 09:57 | 48.94560 | 10.55342 | 32274 ft | 401 kts | 142° |
| 2026-05-06 09:57 | 48.92634 | 10.58396 | 31900 ft | 396 kts | 142° |
| 2026-05-06 09:58 | 48.90747 | 10.61417 | 31522 ft | 393 kts | 142° |
| 2026-05-06 09:58 | 48.88871 | 10.64423 | 31146 ft | 389 kts | 142° |
| 2026-05-06 09:58 | 48.87015 | 10.67390 | 30778 ft | 386 kts | 142° |
| 2026-05-06 09:58 | 48.85168 | 10.70336 | 30424 ft | 383 kts | 142° |
| 2026-05-06 09:59 | 48.83336 | 10.73251 | 30066 ft | 380 kts | 142° |
| 2026-05-06 09:59 | 48.81538 | 10.76107 | 29681 ft | 377 kts | 142° |
| 2026-05-06 09:59 | 48.79731 | 10.78958 | 29279 ft | 373 kts | 142° |
| 2026-05-06 09:59 | 48.77935 | 10.81766 | 28908 ft | 368 kts | 142° |
| 2026-05-06 10:00 | 48.76162 | 10.84529 | 28546 ft | 364 kts | 142° |
| 2026-05-06 10:00 | 48.74406 | 10.87264 | 28180 ft | 359 kts | 142° |
| 2026-05-06 10:00 | 48.72669 | 10.89970 | 27809 ft | 356 kts | 142° |
| 2026-05-06 10:00 | 48.70970 | 10.92615 | 27449 ft | 353 kts | 142° |
| 2026-05-06 10:01 | 48.69267 | 10.95263 | 27086 ft | 349 kts | 142° |
| 2026-05-06 10:01 | 48.67587 | 10.97878 | 26745 ft | 345 kts | 142° |
| 2026-05-06 10:01 | 48.65919 | 11.00469 | 26397 ft | 342 kts | 142° |
| 2026-05-06 10:01 | 48.64260 | 11.03045 | 26050 ft | 340 kts | 142° |
| 2026-05-06 10:02 | 48.62608 | 11.05608 | 25702 ft | 338 kts | 141° |
| 2026-05-06 10:02 | 48.60974 | 11.08141 | 25358 ft | 335 kts | 141° |
| 2026-05-06 10:02 | 48.59351 | 11.10655 | 25018 ft | 333 kts | 141° |
| 2026-05-06 10:02 | 48.57741 | 11.13159 | 24694 ft | 331 kts | 140° |
| 2026-05-06 10:03 | 48.56207 | 11.15736 | 24433 ft | 329 kts | 138° |
| 2026-05-06 10:03 | 48.54708 | 11.18357 | 24096 ft | 329 kts | 137° |
| 2026-05-06 10:03 | 48.53221 | 11.20981 | 23752 ft | 328 kts | 137° |
| 2026-05-06 10:03 | 48.51756 | 11.23562 | 23418 ft | 326 kts | 137° |
| 2026-05-06 10:04 | 48.50281 | 11.26152 | 23020 ft | 324 kts | 137° |
| 2026-05-06 10:04 | 48.48813 | 11.28721 | 22643 ft | 322 kts | 137° |
| 2026-05-06 10:04 | 48.47344 | 11.31281 | 22276 ft | 319 kts | 136° |
| 2026-05-06 10:04 | 48.45897 | 11.33799 | 21939 ft | 317 kts | 137° |
| 2026-05-06 10:05 | 48.44455 | 11.36303 | 21594 ft | 315 kts | 137° |
| 2026-05-06 10:05 | 48.43019 | 11.38792 | 21259 ft | 313 kts | 136° |
| 2026-05-06 10:05 | 48.41613 | 11.41226 | 20930 ft | 311 kts | 136° |
| 2026-05-06 10:05 | 48.40176 | 11.43712 | 20596 ft | 309 kts | 136° |
| 2026-05-06 10:06 | 48.38786 | 11.46115 | 20270 ft | 308 kts | 136° |
| 2026-05-06 10:06 | 48.37381 | 11.48540 | 19944 ft | 306 kts | 136° |
| 2026-05-06 10:06 | 48.35981 | 11.50954 | 19618 ft | 305 kts | 136° |
| 2026-05-06 10:06 | 48.34586 | 11.53359 | 19291 ft | 304 kts | 136° |
| 2026-05-06 10:07 | 48.33200 | 11.55747 | 18975 ft | 303 kts | 136° |
| 2026-05-06 10:07 | 48.31817 | 11.58127 | 18648 ft | 302 kts | 136° |
| 2026-05-06 10:07 | 48.30431 | 11.60510 | 18321 ft | 302 kts | 136° |
| 2026-05-06 10:07 | 48.30195 | 11.60915 | 18265 ft | 301 kts | 136° |
| 2026-05-06 10:08 | 48.29448 | 11.62198 | 18083 ft | 301 kts | 136° |
| 2026-05-06 10:08 | 48.29183 | 11.62652 | 18019 ft | 301 kts | 136° |
| 2026-05-06 10:08 | 48.27820 | 11.64993 | 17845 ft | 293 kts | 136° |
| 2026-05-06 10:08 | 48.26391 | 11.67081 | 17668 ft | 279 kts | 152° |
| 2026-05-06 10:09 | 48.24659 | 11.68243 | 17392 ft | 270 kts | 167° |
| 2026-05-06 10:09 | 48.22856 | 11.68939 | 17102 ft | 266 kts | 170° |
| 2026-05-06 10:09 | 48.21070 | 11.69525 | 16818 ft | 265 kts | 171° |
| 2026-05-06 10:09 | 48.19252 | 11.70107 | 16522 ft | 268 kts | 171° |
| 2026-05-06 10:10 | 48.17420 | 11.70700 | 16228 ft | 273 kts | 170° |
| 2026-05-06 10:10 | 48.15535 | 11.71319 | 15927 ft | 279 kts | 170° |
| 2026-05-06 10:10 | 48.13632 | 11.71953 | 15607 ft | 281 kts | 170° |
| 2026-05-06 10:10 | 48.11728 | 11.72594 | 15289 ft | 279 kts | 170° |
| 2026-05-06 10:11 | 48.09852 | 11.73229 | 14980 ft | 278 kts | 169° |
| 2026-05-06 10:11 | 48.07964 | 11.73870 | 14666 ft | 276 kts | 169° |
| 2026-05-06 10:11 | 48.06087 | 11.74508 | 14359 ft | 275 kts | 169° |
| 2026-05-06 10:11 | 48.04223 | 11.75141 | 14041 ft | 274 kts | 171° |
| 2026-05-06 10:12 | 48.02362 | 11.75774 | 13739 ft | 273 kts | 171° |
| 2026-05-06 10:12 | 48.00510 | 11.76403 | 13415 ft | 272 kts | 171° |
| 2026-05-06 10:12 | 47.98667 | 11.77029 | 13082 ft | 271 kts | 171° |
| 2026-05-06 10:12 | 47.96855 | 11.77644 | 12777 ft | 270 kts | 171° |
| 2026-05-06 10:13 | 47.95031 | 11.78262 | 12472 ft | 268 kts | 171° |
| 2026-05-06 10:13 | 47.93212 | 11.78879 | 12213 ft | 266 kts | 171° |
| 2026-05-06 10:13 | 47.91434 | 11.79482 | 12104 ft | 258 kts | 171° |
| 2026-05-06 10:13 | 47.89703 | 11.80015 | 11927 ft | 251 kts | 178° |
| 2026-05-06 10:14 | 47.87973 | 11.80050 | 11686 ft | 246 kts | 185° |
| 2026-05-06 10:14 | 47.86261 | 11.79922 | 11402 ft | 245 kts | 186° |
| 2026-05-06 10:14 | 47.84560 | 11.79784 | 11153 ft | 244 kts | 186° |
| 2026-05-06 10:14 | 47.82885 | 11.79657 | 10880 ft | 243 kts | 185° |
| 2026-05-06 10:15 | 47.81202 | 11.79541 | 10628 ft | 242 kts | 185° |
| 2026-05-06 10:15 | 47.79523 | 11.79434 | 10376 ft | 240 kts | 185° |
| 2026-05-06 10:15 | 47.77850 | 11.79332 | 10110 ft | 239 kts | 185° |
| 2026-05-06 10:15 | 47.76210 | 11.79238 | 9970 ft | 233 kts | 185° |
| 2026-05-06 10:16 | 47.74597 | 11.79147 | 9741 ft | 230 kts | 184° |
| 2026-05-06 10:16 | 47.73031 | 11.79064 | 9657 ft | 220 kts | 184° |
| 2026-05-06 10:16 | 47.71487 | 11.78979 | 9544 ft | 225 kts | 184° |
| 2026-05-06 10:16 | 47.69906 | 11.79046 | 9470 ft | 233 kts | 169° |
| 2026-05-06 10:17 | 47.68367 | 11.79841 | 9474 ft | 240 kts | 163° |
| 2026-05-06 10:17 | 47.66811 | 11.80730 | 9415 ft | 238 kts | 164° |
| 2026-05-06 10:17 | 47.65269 | 11.81612 | 9487 ft | 238 kts | 163° |
| 2026-05-06 10:17 | 47.63709 | 11.82497 | 9445 ft | 239 kts | 164° |
| 2026-05-06 10:18 | 47.62148 | 11.83380 | 9482 ft | 242 kts | 163° |
| 2026-05-06 10:18 | 47.60592 | 11.84254 | 9441 ft | 238 kts | 162° |
| 2026-05-06 10:18 | 47.59054 | 11.85117 | 9469 ft | 237 kts | 162° |
| 2026-05-06 10:18 | 47.57490 | 11.85993 | 9469 ft | 240 kts | 162° |
| 2026-05-06 10:19 | 47.55925 | 11.86867 | 9470 ft | 240 kts | 161° |
| 2026-05-06 10:19 | 47.54364 | 11.87738 | 9462 ft | 239 kts | 161° |
| 2026-05-06 10:19 | 47.52830 | 11.88594 | 9478 ft | 237 kts | 161° |
| 2026-05-06 10:19 | 47.51276 | 11.89459 | 9448 ft | 238 kts | 162° |
| 2026-05-06 10:20 | 47.49754 | 11.90307 | 9451 ft | 229 kts | 162° |
| 2026-05-06 10:20 | 47.48296 | 11.91119 | 9445 ft | 218 kts | 162° |
| 2026-05-06 10:20 | 47.46886 | 11.91901 | 9458 ft | 215 kts | 162° |
| 2026-05-06 10:20 | 47.45499 | 11.92670 | 9460 ft | 217 kts | 162° |
| 2026-05-06 10:21 | 47.44071 | 11.93455 | 9477 ft | 220 kts | 164° |
| 2026-05-06 10:21 | 47.42580 | 11.93572 | 9461 ft | 217 kts | 201° |
| 2026-05-06 10:21 | 47.41258 | 11.92459 | 9483 ft | 221 kts | 211° |
| 2026-05-06 10:21 | 47.39965 | 11.91282 | 9505 ft | 214 kts | 210° |
| 2026-05-06 10:22 | 47.38724 | 11.90171 | 9449 ft | 202 kts | 209° |
| 2026-05-06 10:22 | 47.37565 | 11.89142 | 9465 ft | 196 kts | 209° |
| 2026-05-06 10:22 | 47.36366 | 11.88086 | 9483 ft | 202 kts | 208° |
| 2026-05-06 10:22 | 47.35174 | 11.87037 | 9471 ft | 197 kts | 208° |
| 2026-05-06 10:23 | 47.34012 | 11.86000 | 9463 ft | 194 kts | 213° |
| 2026-05-06 10:23 | 47.33219 | 11.84399 | 9488 ft | 203 kts | 252° |
| 2026-05-06 10:23 | 47.33018 | 11.82289 | 9493 ft | 211 kts | 255° |
| 2026-05-06 10:23 | 47.32714 | 11.80169 | 9292 ft | 217 kts | 252° |
| 2026-05-06 10:24 | 47.32374 | 11.77975 | 8978 ft | 220 kts | 252° |
| 2026-05-06 10:24 | 47.32048 | 11.75820 | 8555 ft | 211 kts | 253° |
| 2026-05-06 10:24 | 47.31750 | 11.73799 | 8325 ft | 194 kts | 252° |
| 2026-05-06 10:24 | 47.31454 | 11.71867 | 7965 ft | 189 kts | 253° |
| 2026-05-06 10:25 | 47.31178 | 11.70031 | 7693 ft | 175 kts | 253° |
| 2026-05-06 10:25 | 47.30929 | 11.68350 | 7357 ft | 161 kts | 250° |
| 2026-05-06 10:25 | 47.30697 | 11.66792 | 7104 ft | 152 kts | 250° |
| 2026-05-06 10:25 | 47.30471 | 11.65289 | 6875 ft | 149 kts | 250° |
| 2026-05-06 10:26 | 47.30239 | 11.63756 | 6623 ft | 156 kts | 251° |
| 2026-05-06 10:26 | 47.30002 | 11.62177 | 6360 ft | 158 kts | 253° |
| 2026-05-06 10:26 | 47.29768 | 11.60592 | 6083 ft | 157 kts | 252° |
| 2026-05-06 10:26 | 47.29538 | 11.59049 | 5830 ft | 156 kts | 254° |
| 2026-05-06 10:27 | 47.29307 | 11.57484 | 5569 ft | 156 kts | 255° |
| 2026-05-06 10:27 | 47.29072 | 11.55902 | 5301 ft | 159 kts | 252° |
| 2026-05-06 10:27 | 47.28831 | 11.54291 | 5035 ft | 163 kts | 254° |
| 2026-05-06 10:27 | 47.28586 | 11.52624 | 4787 ft | 168 kts | 255° |
| 2026-05-06 10:28 | 47.28422 | 11.51513 | 4567 ft | 168 kts | 255° |
| 2026-05-06 10:28 | 47.28175 | 11.49842 | 4284 ft | 165 kts | 255° |
| 2026-05-06 10:28 | 47.27934 | 11.48210 | 4001 ft | 161 kts | 255° |
| 2026-05-06 10:28 | 47.27707 | 11.46667 | 4000 ft | 150 kts | 250° |
| 2026-05-06 10:29 | 47.27169 | 11.45322 | 4086 ft | 157 kts | 232° |
| 2026-05-06 10:29 | 47.26581 | 11.43985 | 3995 ft | 154 kts | 233° |
| 2026-05-06 10:29 | 47.26029 | 11.42653 | 3866 ft | 153 kts | 234° |
| 2026-05-06 10:29 | 47.25461 | 11.41318 | 3762 ft | 154 kts | 234° |
| 2026-05-06 10:30 | 47.24879 | 11.40032 | 3725 ft | 147 kts | 233° |
| 2026-05-06 10:30 | 47.24316 | 11.38753 | 3750 ft | 151 kts | 234° |
| 2026-05-06 10:30 | 47.23801 | 11.37406 | 3846 ft | 151 kts | 244° |
| 2026-05-06 10:30 | 47.23519 | 11.35825 | 3678 ft | 162 kts | 256° |
| 2026-05-06 10:31 | 47.23430 | 11.34240 | 3535 ft | 155 kts | 265° |
| 2026-05-06 10:31 | 47.23462 | 11.32660 | 3491 ft | 155 kts | 268° |
| 2026-05-06 10:31 | 47.23505 | 11.31078 | 3730 ft | 154 kts | 261° |
| 2026-05-06 10:31 | 47.23291 | 11.29498 | 3853 ft | 161 kts | 252° |
| 2026-05-06 10:32 | 47.23408 | 11.27901 | 3683 ft | 165 kts | 300° |
| 2026-05-06 10:32 | 47.24210 | 11.26739 | 3377 ft | 167 kts | 336° |
| 2026-05-06 10:32 | 47.25263 | 11.26851 | 2941 ft | 158 kts | 50° |
| 2026-05-06 10:32 | 47.25485 | 11.28277 | 2610 ft | 138 kts | 97° |
| 2026-05-06 10:33 | 47.25548 | 11.29628 | 2400 ft | 132 kts | 90° |
| 2026-05-06 10:33 | 47.25678 | 11.30927 | 2318 ft | 127 kts | 87° |
| 2026-05-06 10:33 | 47.25799 | 11.32206 | 2133 ft | 127 kts | 90° |
| 2026-05-06 10:33 | 47.25930 | 11.33479 | 1939 ft | 121 kts | 90° |
| 2026-05-06 10:34 | 47.26032 | 11.34535 | 1900 ft | 79 kts | 81° |
| 2026-05-06 10:34 | 47.26090 | 11.35059 | 1903 ft | 37 kts | 80° |
| 2026-05-06 10:34 | 47.26100 | 11.35221 | 1902 ft | 9 kts | 112° |
| 2026-05-06 10:34 | 47.26041 | 11.35264 | 1897 ft | 11 kts | 168° |
| 2026-05-06 10:35 | 47.25961 | 11.35284 | 1890 ft | 10 kts | 171° |
| 2026-05-06 10:35 | 47.25904 | 11.35257 | 1894 ft | 9 kts | 241° |
| 2026-05-06 10:35 | 47.25889 | 11.35165 | 1895 ft | 9 kts | 261° |
| 2026-05-06 10:35 | 47.25879 | 11.35074 | 1887 ft | 9 kts | 261° |
| 2026-05-06 10:36 | 47.25869 | 11.34991 | 1893 ft | 5 kts | 260° |
| 2026-05-06 10:36 | 47.25856 | 11.34945 | 1893 ft | 5 kts | 230° |
| 2026-05-06 10:36 | 47.25827 | 11.34931 | 1898 ft | 3 kts | 178° |
| 2026-05-06 10:36 | 47.25809 | 11.34934 | 1890 ft | 2 kts | 170° |
| 2026-05-06 10:37 | 47.25807 | 11.34934 | 1890 ft | 0 kts | 170° |